Time;durP1;ratioP1;P1;durP2;ratioP2;P2;SDS_P1;SDS_P2;PMS_P1;PMS_P2;Temp;Humidity;BMP_temperature;BMP_pressure;BME280_temperature;BME280_humidity;BME280_pressure;Samples;Min_cycle;Max_cycle;Signal;HPM_P1;HPM_P2
2021/12/21 00:01:28;;;;;;;64.95;30.50;;;-4.60;99.90;;;;;;4910640;28;20048;-69
2021/12/21 00:03:55;;;;;;;70.95;28.95;;;-4.50;99.90;;;;;;4903957;29;20087;-70
2021/12/21 00:06:22;;;;;;;66.60;29.05;;;-4.40;99.90;;;;;;4918989;28;20040;-70
2021/12/21 00:08:49;;;;;;;57.53;26.70;;;-4.40;99.90;;;;;;4913194;28;20052;-70
2021/12/21 00:11:16;;;;;;;54.58;24.58;;;-4.30;99.90;;;;;;4912869;28;20529;-70
2021/12/21 00:19:09;;;;;;;53.50;24.63;;;-4.80;99.90;;;;;;4913492;28;20055;-70
2021/12/21 00:24:11;;;;;;;53.00;23.25;;;-4.70;99.90;;;;;;4914657;29;20058;-70
2021/12/21 00:26:38;;;;;;;58.10;24.55;;;-4.80;99.90;;;;;;4911305;29;20340;-70
2021/12/21 00:29:06;;;;;;;59.97;23.80;;;-4.80;99.90;;;;;;4997894;28;20048;-70
2021/12/21 00:31:35;;;;;;;51.20;24.20;;;-4.50;99.90;;;;;;4897698;29;20036;-70
2021/12/21 00:34:04;;;;;;;51.70;25.45;;;-4.40;99.90;;;;;;4911751;29;20056;-71
2021/12/21 00:36:31;;;;;;;47.38;21.35;;;-4.30;99.90;;;;;;4909856;28;20060;-70
2021/12/21 00:39:03;;;;;;;51.75;21.58;;;-4.50;99.90;;;;;;4994219;28;20063;-70
2021/12/21 00:41:31;;;;;;;47.10;22.85;;;-4.70;99.90;;;;;;4913414;28;20210;-70
2021/12/21 00:43:58;;;;;;;59.45;25.80;;;-4.60;99.90;;;;;;4914589;29;20417;-70
2021/12/21 00:46:25;;;;;;;60.88;25.48;;;-4.40;99.90;;;;;;4915379;28;20059;-70
2021/12/21 00:48:55;;;;;;;59.15;24.80;;;-4.50;99.90;;;;;;4912552;28;20048;-70
2021/12/21 00:51:26;;;;;;;54.60;23.67;;;-4.60;99.90;;;;;;4914124;28;20079;-70
2021/12/21 00:53:55;;;;;;;59.95;25.40;;;-4.40;99.90;;;;;;4897724;28;20061;-70
2021/12/21 00:56:22;;;;;;;50.97;23.70;;;-4.30;99.90;;;;;;4896103;28;20106;-71
2021/12/21 00:58:48;;;;;;;55.28;23.27;;;-4.20;99.90;;;;;;4894487;29;20061;-71
2021/12/21 01:01:16;;;;;;;54.05;25.25;;;-4.20;99.90;;;;;;4895218;28;20048;-71
2021/12/21 01:03:47;;;;;;;52.20;24.02;;;-4.40;99.90;;;;;;4913038;29;20055;-71
2021/12/21 01:06:39;;;;;;;52.67;23.17;;;-4.50;99.90;;;;;;4896136;28;20052;-70
2021/12/21 01:09:39;;;;;;;50.00;23.42;;;-4.70;99.90;;;;;;4909650;29;20060;-70
2021/12/21 01:12:08;;;;;;;49.47;23.77;;;-4.80;99.90;;;;;;4924939;28;20576;-70
2021/12/21 01:15:03;;;;;;;49.58;22.95;;;-4.90;99.90;;;;;;4960855;28;20060;-70
2021/12/21 01:17:46;;;;;;;48.33;23.60;;;-4.80;99.90;;;;;;4896446;28;20518;-70
2021/12/21 01:20:29;;;;;;;54.03;24.20;;;-4.90;99.90;;;;;;4924788;28;20070;-70
2021/12/21 01:25:57;;;;;;;60.95;25.80;;;-5.00;99.90;;;;;;4926998;29;20051;-71
2021/12/21 01:31:42;;;;;;;54.65;25.50;;;-4.60;99.90;;;;;;4927493;29;20067;-71
2021/12/21 01:36:37;;;;;;;51.50;23.25;;;-4.90;99.90;;;;;;4912328;28;20048;-71
2021/12/21 01:39:48;;;;;;;65.00;25.67;;;-5.00;99.90;;;;;;4910025;29;20063;-71
2021/12/21 01:50:36;;;;;;;55.90;25.98;;;-5.00;99.90;;;;;;4999777;28;20049;-71
2021/12/21 01:53:03;;;;;;;56.20;26.35;;;-5.10;99.90;;;;;;5028805;28;20157;-71
2021/12/21 01:55:31;;;;;;;56.05;25.25;;;-5.10;99.90;;;;;;4956683;28;20071;-71
2021/12/21 01:57:58;;;;;;;53.83;25.90;;;-5.10;99.90;;;;;;4894463;29;20557;-71
2021/12/21 02:00:25;;;;;;;61.40;24.75;;;-5.10;99.90;;;;;;4898614;29;20060;-71
2021/12/21 02:02:51;;;;;;;53.70;25.67;;;-5.00;99.90;;;;;;4915541;28;20056;-71
2021/12/21 02:05:18;;;;;;;62.38;26.27;;;-4.80;99.90;;;;;;5015133;28;20102;-71
2021/12/21 02:07:45;;;;;;;58.17;26.70;;;-4.70;99.90;;;;;;4930557;29;20061;-72
2021/12/21 02:10:12;;;;;;;57.42;28.58;;;-4.70;99.90;;;;;;4940412;28;20225;-71
2021/12/21 02:12:39;;;;;;;67.25;26.98;;;-4.80;99.90;;;;;;5036920;28;20446;-71
2021/12/21 02:15:07;;;;;;;66.38;26.85;;;-4.80;99.90;;;;;;5017985;28;20057;-71
2021/12/21 02:18:40;;;;;;;63.05;28.60;;;-4.70;99.90;;;;;;4975959;28;20057;-71
2021/12/21 02:28:21;;;;;;;62.40;26.63;;;-4.60;99.90;;;;;;4916480;29;20093;-71
2021/12/21 02:30:52;;;;;;;63.97;25.58;;;-4.70;99.90;;;;;;4916526;28;20541;-71
2021/12/21 02:33:20;;;;;;;58.42;25.95;;;-4.90;99.90;;;;;;4917645;29;20150;-71
2021/12/21 02:35:47;;;;;;;48.08;22.77;;;-5.10;99.90;;;;;;4915493;28;20295;-71
2021/12/21 02:38:14;;;;;;;55.05;23.75;;;-5.00;99.90;;;;;;4916328;29;20652;-71
2021/12/21 02:40:42;;;;;;;54.38;24.45;;;-5.10;99.90;;;;;;4916097;28;20055;-72
2021/12/21 02:43:10;;;;;;;52.05;24.98;;;-5.10;99.90;;;;;;4916166;28;20729;-71
2021/12/21 02:45:39;;;;;;;53.05;24.58;;;-5.10;99.90;;;;;;4914976;28;20063;-71
2021/12/21 02:48:07;;;;;;;51.17;26.73;;;-5.10;99.90;;;;;;4930595;29;20040;-71
2021/12/21 02:50:36;;;;;;;59.03;26.85;;;-5.20;99.90;;;;;;4916959;28;20059;-71
2021/12/21 02:53:03;;;;;;;55.45;25.98;;;-5.20;99.90;;;;;;4915580;28;20051;-70
2021/12/21 02:55:30;;;;;;;57.60;25.85;;;-5.00;99.90;;;;;;4913016;28;20209;-71
2021/12/21 02:57:57;;;;;;;50.88;25.13;;;-4.90;99.90;;;;;;4915063;28;20052;-71
2021/12/21 03:00:25;;;;;;;47.75;24.80;;;-4.80;99.90;;;;;;4915920;28;20044;-71
2021/12/21 03:02:53;;;;;;;57.22;24.63;;;-4.90;99.90;;;;;;4899612;29;20094;-70
2021/12/21 03:05:21;;;;;;;55.13;25.90;;;-5.10;99.90;;;;;;4914693;28;20051;-71
2021/12/21 03:10:58;;;;;;;60.67;28.88;;;-4.90;99.90;;;;;;4914366;28;20487;-70
2021/12/21 03:16:10;;;;;;;49.60;25.63;;;-4.90;99.90;;;;;;4915754;28;20043;-71
2021/12/21 03:18:37;;;;;;;51.55;25.52;;;-5.10;99.90;;;;;;4913421;29;20040;-71
2021/12/21 03:21:04;;;;;;;51.55;26.25;;;-5.20;99.90;;;;;;4916342;28;20051;-71
2021/12/21 03:23:31;;;;;;;61.03;27.17;;;-5.10;99.90;;;;;;4915166;29;20074;-70
2021/12/21 03:25:58;;;;;;;55.72;28.00;;;-5.10;99.90;;;;;;4912492;29;20044;-71
2021/12/21 03:28:25;;;;;;;51.63;26.95;;;-5.10;99.90;;;;;;4914511;28;20094;-71
2021/12/21 03:30:51;;;;;;;57.47;27.15;;;-5.30;99.90;;;;;;4912249;28;20446;-70
2021/12/21 03:33:19;;;;;;;56.70;26.77;;;-5.30;99.90;;;;;;4898777;29;20063;-71
2021/12/21 03:35:46;;;;;;;56.08;27.98;;;-5.30;99.90;;;;;;4918102;29;20044;-71
2021/12/21 03:38:14;;;;;;;62.83;28.38;;;-5.40;99.90;;;;;;4918929;29;20060;-70
2021/12/21 03:40:41;;;;;;;63.60;29.65;;;-5.40;99.90;;;;;;4931363;28;20520;-70
2021/12/21 03:43:10;;;;;;;73.25;29.58;;;-5.30;99.90;;;;;;4925619;29;20308;-70
2021/12/21 03:45:49;;;;;;;64.07;30.40;;;-5.40;99.90;;;;;;4914606;28;20051;-70
2021/12/21 03:48:16;;;;;;;60.53;30.60;;;-5.30;99.90;;;;;;4916305;28;20537;-69
2021/12/21 03:50:43;;;;;;;59.25;30.10;;;-5.20;99.90;;;;;;4907262;28;20166;-69
2021/12/21 03:53:10;;;;;;;57.00;28.83;;;-5.30;99.90;;;;;;4896125;29;20071;-69
2021/12/21 03:55:37;;;;;;;64.47;28.85;;;-5.20;99.90;;;;;;4904587;28;20056;-69
2021/12/21 03:58:03;;;;;;;60.50;30.27;;;-5.20;99.90;;;;;;4979371;28;20055;-69
2021/12/21 04:00:31;;;;;;;65.05;30.00;;;-5.40;99.90;;;;;;4911318;28;20060;-69
2021/12/21 04:02:57;;;;;;;55.30;28.13;;;-5.50;99.90;;;;;;4901259;29;20103;-69
2021/12/21 04:05:24;;;;;;;53.83;27.08;;;-5.60;99.90;;;;;;4908131;28;20051;-69
2021/12/21 04:07:55;;;;;;;63.03;29.17;;;-5.50;99.90;;;;;;4971775;28;20174;-69
2021/12/21 04:10:22;;;;;;;68.40;29.88;;;-5.60;99.90;;;;;;4927992;28;20686;-69
2021/12/21 04:12:49;;;;;;;67.05;30.48;;;-5.40;99.90;;;;;;4928001;28;20082;-69
2021/12/21 04:15:17;;;;;;;68.78;30.17;;;-5.30;99.90;;;;;;4911084;28;20521;-69
2021/12/21 04:17:44;;;;;;;68.05;30.20;;;-5.10;99.90;;;;;;4914079;28;20052;-69
2021/12/21 04:20:12;;;;;;;61.65;30.48;;;-4.90;99.90;;;;;;4991384;28;20048;-69
2021/12/21 04:22:38;;;;;;;68.65;32.03;;;-4.90;99.90;;;;;;4911900;29;20051;-69
2021/12/21 04:25:07;;;;;;;69.07;31.92;;;-5.00;99.90;;;;;;4910054;28;20048;-69
2021/12/21 04:27:33;;;;;;;61.65;30.65;;;-5.20;99.90;;;;;;4926573;29;20605;-70
2021/12/21 04:30:00;;;;;;;64.65;31.80;;;-5.30;99.90;;;;;;4913127;29;20059;-69
2021/12/21 04:32:27;;;;;;;74.82;34.88;;;-5.20;99.90;;;;;;4916531;28;20047;-69
2021/12/21 04:34:54;;;;;;;63.22;30.10;;;-5.00;99.90;;;;;;4912702;29;20647;-69
2021/12/21 04:37:23;;;;;;;63.22;32.10;;;-5.00;99.90;;;;;;4909916;29;20502;-69
2021/12/21 04:39:59;;;;;;;58.55;28.90;;;-5.20;99.90;;;;;;4912176;28;20063;-69
2021/12/21 04:42:26;;;;;;;66.07;31.02;;;-5.30;99.90;;;;;;4910842;28;20047;-69
2021/12/21 04:44:53;;;;;;;71.40;31.45;;;-5.30;99.90;;;;;;4911176;28;20063;-69
2021/12/21 04:47:19;;;;;;;57.30;29.75;;;-5.40;99.90;;;;;;4915271;28;20039;-69
2021/12/21 04:49:46;;;;;;;68.80;32.58;;;-5.50;99.90;;;;;;4992674;28;20055;-69
2021/12/21 04:52:13;;;;;;;71.55;32.20;;;-5.50;99.90;;;;;;4911087;28;20517;-69
2021/12/21 04:54:40;;;;;;;70.93;34.10;;;-5.60;99.90;;;;;;4907988;29;20046;-69
2021/12/21 04:57:07;;;;;;;57.70;29.90;;;-5.70;99.90;;;;;;4906906;28;20252;-69
2021/12/21 04:59:34;;;;;;;61.45;30.55;;;-5.70;99.90;;;;;;4892949;29;20059;-69
2021/12/21 05:02:00;;;;;;;65.22;29.98;;;-5.70;99.90;;;;;;4897823;29;20107;-69
2021/12/21 05:04:27;;;;;;;67.93;30.45;;;-5.60;99.90;;;;;;4899582;29;20071;-69
2021/12/21 05:06:54;;;;;;;65.75;30.98;;;-5.60;99.90;;;;;;4893337;28;20174;-69
2021/12/21 05:09:28;;;;;;;65.80;32.00;;;-5.70;99.90;;;;;;4910054;29;20044;-69
2021/12/21 05:12:04;;;;;;;64.53;31.23;;;-5.70;99.90;;;;;;4912370;28;20078;-69
2021/12/21 05:14:30;;;;;;;55.85;29.45;;;-5.70;99.90;;;;;;4912559;28;20056;-69
2021/12/21 05:16:57;;;;;;;69.25;31.40;;;-5.80;99.90;;;;;;4913185;28;20051;-69
2021/12/21 05:19:24;;;;;;;74.10;34.70;;;-5.60;99.90;;;;;;4909534;28;20220;-69
2021/12/21 05:21:51;;;;;;;62.67;32.15;;;-5.50;99.90;;;;;;4912798;28;20056;-69
2021/12/21 05:24:18;;;;;;;67.65;32.40;;;-5.30;99.90;;;;;;4911240;28;20059;-69
2021/12/21 05:26:45;;;;;;;78.45;34.53;;;-5.20;99.90;;;;;;4908858;28;20051;-69
2021/12/21 05:29:12;;;;;;;62.47;31.05;;;-5.20;99.90;;;;;;4910420;29;20044;-69
2021/12/21 05:31:39;;;;;;;63.90;29.27;;;-5.30;99.90;;;;;;4907282;28;20742;-69
2021/12/21 05:34:05;;;;;;;66.03;30.38;;;-5.50;99.90;;;;;;4918056;29;20055;-69
2021/12/21 05:36:33;;;;;;;62.35;28.60;;;-5.50;99.90;;;;;;4925524;28;20082;-69
2021/12/21 05:39:03;;;;;;;57.78;25.63;;;-5.60;99.90;;;;;;4894109;28;20059;-69
2021/12/21 05:41:49;;;;;;;50.58;23.58;;;-5.60;99.90;;;;;;4910987;28;20068;-69
2021/12/21 05:44:17;;;;;;;46.35;21.50;;;-5.50;99.90;;;;;;4895242;28;20060;-68
2021/12/21 05:46:44;;;;;;;48.80;23.75;;;-5.20;99.90;;;;;;4917097;28;20122;-69
2021/12/21 05:49:17;;;;;;;44.03;21.80;;;-5.30;99.90;;;;;;4995419;23;20095;-79
2021/12/21 05:51:49;;;;;;;43.22;22.05;;;-5.40;99.90;;;;;;5042912;28;20045;-79
2021/12/21 05:54:25;;;;;;;43.10;22.48;;;-5.50;99.90;;;;;;5037782;28;20045;-78
2021/12/21 05:57:00;;;;;;;42.72;20.17;;;-5.60;99.90;;;;;;5032587;28;20049;-79
2021/12/21 05:59:27;;;;;;;43.38;20.25;;;-5.60;99.90;;;;;;5034938;28;20052;-80
2021/12/21 06:01:54;;;;;;;49.10;19.63;;;-5.60;99.90;;;;;;5032800;28;20052;-80
2021/12/21 06:04:21;;;;;;;38.70;19.30;;;-5.70;99.90;;;;;;5020576;28;20556;-80
2021/12/21 06:06:48;;;;;;;40.05;18.80;;;-5.80;99.90;;;;;;5036007;28;20057;-79
2021/12/21 06:09:16;;;;;;;39.63;20.77;;;-5.90;99.90;;;;;;5035472;28;20049;-80
2021/12/21 06:12:12;;;;;;;45.63;19.20;;;-5.90;99.90;;;;;;5035760;28;20124;-80
2021/12/21 06:25:36;;;;;;;54.25;23.80;;;-5.80;99.90;;;;;;5038638;28;20472;-80
2021/12/21 06:28:11;;;;;;;52.78;25.08;;;-5.60;99.90;;;;;;5033538;28;20049;-79
2021/12/21 06:30:39;;;;;;;;;;;-5.50;99.90;;;;;;5018059;28;20697;-80
2021/12/21 06:33:08;;;;;;;48.42;22.50;;;-5.50;99.90;;;;;;5036003;28;19972;-81
2021/12/21 06:35:38;;;;;;;51.33;24.25;;;-5.30;99.90;;;;;;5037000;28;20119;-79
2021/12/21 06:38:05;;;;;;;49.42;22.88;;;-5.10;99.90;;;;;;5018245;28;20049;-79
2021/12/21 06:40:33;;;;;;;47.95;22.52;;;-5.10;99.90;;;;;;5035233;28;20053;-80
2021/12/21 06:43:02;;;;;;;51.70;23.20;;;-5.10;99.90;;;;;;5035292;28;20155;-79
2021/12/21 06:46:01;;;;;;;39.17;18.45;;;-5.00;99.90;;;;;;5035657;28;20508;-80
2021/12/21 06:51:28;;;;;;;38.10;18.38;;;-5.40;99.90;;;;;;5035554;28;20056;-81
2021/12/21 06:53:57;;;;;;;41.65;18.98;;;-5.50;99.90;;;;;;5038671;28;20056;-79
2021/12/21 06:56:28;;;;;;;47.90;20.05;;;-5.30;99.90;;;;;;5023936;28;20088;-80
2021/12/21 06:59:06;;;;;;;42.13;19.63;;;-5.20;99.90;;;;;;5030617;28;20042;-78
2021/12/21 07:01:40;;;;;;;46.67;17.80;;;-5.20;99.90;;;;;;5008709;28;20066;-79
2021/12/21 07:04:11;;;;;;;33.22;15.80;;;-5.20;99.90;;;;;;5033905;28;20049;-80
2021/12/21 07:06:41;;;;;;;28.83;14.07;;;-5.30;99.90;;;;;;5010778;28;20045;-79
2021/12/21 07:11:44;;;;;;;35.28;14.68;;;-5.50;99.90;;;;;;5037576;28;20053;-79
2021/12/21 07:19:45;;;;;;;32.33;14.15;;;-5.70;99.90;;;;;;5037426;28;20076;-80
2021/12/21 07:22:13;;;;;;;36.00;14.10;;;-5.60;99.90;;;;;;5036957;28;20072;-80
2021/12/21 07:24:42;;;;;;;44.92;15.13;;;-5.70;99.90;;;;;;5035674;28;20045;-81
2021/12/21 07:27:08;;;;;;;45.35;17.83;;;-5.70;99.90;;;;;;5016376;28;20367;-80
2021/12/21 07:29:35;;;;;;;51.95;22.77;;;-5.80;99.90;;;;;;5024480;28;20102;-81
2021/12/21 07:32:04;;;;;;;50.88;21.58;;;-5.70;99.90;;;;;;5056848;28;20094;-80
2021/12/21 07:34:32;;;;;;;38.75;20.15;;;-5.80;99.90;;;;;;5040956;28;20052;-79
2021/12/21 07:36:59;;;;;;;46.08;19.60;;;-5.80;99.90;;;;;;5053861;28;20051;-78
2021/12/21 07:39:26;;;;;;;48.40;20.98;;;-5.90;99.90;;;;;;5052187;28;20052;-79
2021/12/21 07:42:14;;;;;;;52.60;22.23;;;-6.00;99.90;;;;;;5039563;28;20053;-80
2021/12/21 07:44:40;;;;;;;48.78;22.52;;;-5.60;99.90;;;;;;5025607;28;20130;-79
2021/12/21 07:47:07;;;;;;;57.83;27.77;;;-5.40;99.90;;;;;;5023518;28;20044;-80
2021/12/21 07:49:34;;;;;;;60.53;24.58;;;-5.30;99.90;;;;;;5036192;28;20055;-80
2021/12/21 07:52:03;;;;;;;62.50;26.55;;;-5.30;99.90;;;;;;5033966;28;20045;-80
2021/12/21 07:54:29;;;;;;;79.05;30.20;;;-5.30;99.90;;;;;;5016222;28;20107;-80
2021/12/21 07:56:56;;;;;;;61.00;28.15;;;-5.40;99.90;;;;;;5029687;28;20103;-80
2021/12/21 07:59:24;;;;;;;62.95;29.08;;;-5.40;99.90;;;;;;5023926;28;20336;-79
2021/12/21 08:01:52;;;;;;;66.50;26.77;;;-5.30;99.90;;;;;;5015621;28;20053;-80
2021/12/21 08:04:26;;;;;;;53.88;23.75;;;-5.20;99.90;;;;;;5014808;28;20049;-79
2021/12/21 08:07:04;;;;;;;44.65;20.48;;;-5.00;99.90;;;;;;5017700;28;20054;-80
2021/12/21 08:09:39;;;;;;;40.53;15.50;;;-4.90;99.90;;;;;;5017375;28;20045;-80
2021/12/21 08:12:17;;;;;;;30.92;13.45;;;-5.00;99.90;;;;;;5031546;28;20053;-80
2021/12/21 08:14:47;;;;;;;30.35;10.88;;;-5.20;99.90;;;;;;5011325;28;20044;-79
2021/12/21 08:17:15;;;;;;;28.50;10.50;;;-5.10;99.90;;;;;;5040564;28;20096;-80
2021/12/21 08:19:45;;;;;;;27.60;11.77;;;-5.10;99.90;;;;;;5035329;28;20053;-79
2021/12/21 08:22:12;;;;;;;33.90;17.05;;;-5.20;99.90;;;;;;5020106;28;20110;-81
2021/12/21 08:24:42;;;;;;;59.72;25.95;;;-5.20;99.90;;;;;;5032672;28;20053;-81
2021/12/21 08:27:10;;;;;;;72.38;31.77;;;-5.20;99.90;;;;;;5020101;28;20041;-81
2021/12/21 08:30:43;;;;;;;65.28;30.80;;;-5.10;99.90;;;;;;5010118;28;20064;-80
2021/12/21 08:33:42;;;;;;;62.55;28.73;;;-5.10;99.90;;;;;;4945742;28;20086;-65
2021/12/21 08:36:13;;;;;;;61.20;27.38;;;-5.00;99.90;;;;;;4955719;28;20535;-66
2021/12/21 08:38:44;;;;;;;57.53;27.92;;;-5.10;99.90;;;;;;4954014;28;20058;-66
2021/12/21 08:41:13;;;;;;;61.83;31.42;;;-5.00;99.90;;;;;;4956613;28;20480;-71
2021/12/21 08:43:43;;;;;;;72.88;34.25;;;-5.00;99.90;;;;;;4957621;28;20582;-70
2021/12/21 08:46:13;;;;;;;73.63;37.55;;;-4.90;99.90;;;;;;4975769;28;20053;-70
2021/12/21 08:48:43;;;;;;;69.68;32.25;;;-4.70;99.90;;;;;;4977450;28;20039;-71
2021/12/21 08:51:14;;;;;;;75.43;35.35;;;-4.60;99.90;;;;;;4974785;28;20050;-71
2021/12/21 08:53:44;;;;;;;55.22;30.00;;;-4.40;99.90;;;;;;4976803;28;20105;-71
2021/12/21 08:56:16;;;;;;;67.75;34.70;;;-4.00;99.90;;;;;;4990503;28;20583;-71
2021/12/21 08:58:45;;;;;;;69.43;36.75;;;-3.70;99.90;;;;;;4976236;28;20530;-71
2021/12/21 09:01:16;;;;;;;77.15;38.25;;;-3.40;99.90;;;;;;4975489;28;20159;-71
2021/12/21 09:03:45;;;;;;;84.90;42.83;;;-3.20;99.90;;;;;;4975009;28;20050;-67
2021/12/21 09:06:18;;;;;;;74.65;35.22;;;-3.00;99.90;;;;;;4970809;28;20527;-71
2021/12/21 09:08:47;;;;;;;120.55;39.83;;;-2.80;99.90;;;;;;4973933;28;20794;-66
2021/12/21 09:11:18;;;;;;;64.88;35.65;;;-2.30;99.90;;;;;;4973184;28;20046;-66
2021/12/21 09:13:47;;;;;;;63.45;31.95;;;-2.10;99.90;;;;;;4974604;28;20543;-65
2021/12/21 09:16:17;;;;;;;150.10;45.55;;;-1.80;99.90;;;;;;4969940;28;20049;-72
2021/12/21 09:18:51;;;;;;;72.05;39.60;;;-1.30;99.90;;;;;;4970356;28;20054;-68
2021/12/21 09:21:20;;;;;;;82.55;47.90;;;-0.90;99.90;;;;;;4972827;28;20046;-67
2021/12/21 09:23:51;;;;;;;73.68;49.28;;;-0.90;99.90;;;;;;4974208;28;20057;-67
2021/12/21 09:26:24;;;;;;;70.20;43.33;;;-1.20;99.90;;;;;;4963828;28;20082;-66
2021/12/21 09:28:53;;;;;;;35.33;28.85;;;-1.40;99.90;;;;;;4971415;28;20105;-67
2021/12/21 09:31:24;;;;;;;38.45;28.15;;;-1.50;99.90;;;;;;4973033;28;20053;-67
2021/12/21 09:34:00;;;;;;;30.52;26.25;;;-1.40;99.90;;;;;;4975161;28;20343;-67
2021/12/21 09:36:32;;;;;;;35.30;24.35;;;-1.30;99.90;;;;;;4961346;28;20061;-66
2021/12/21 09:39:06;;;;;;;31.60;22.15;;;-1.40;99.90;;;;;;4954326;28;20144;-67
2021/12/21 09:41:36;;;;;;;28.30;17.73;;;-1.40;99.90;;;;;;4953007;28;20051;-66
2021/12/21 09:44:06;;;;;;;28.08;17.90;;;-1.00;99.90;;;;;;4969195;28;20066;-66
2021/12/21 09:46:36;;;;;;;24.70;18.58;;;-0.60;99.90;;;;;;4969735;28;20057;-67
2021/12/21 09:49:04;;;;;;;23.77;19.65;;;-0.30;99.90;;;;;;4972434;28;20543;-67
2021/12/21 09:51:36;;;;;;;41.92;25.63;;;0.10;99.90;;;;;;4987088;28;20504;-66
2021/12/21 09:54:08;;;;;;;38.00;31.08;;;0.50;99.90;;;;;;4990641;28;20145;-68
2021/12/21 09:56:43;;;;;;;75.57;37.33;;;0.70;99.90;;;;;;4969088;28;20054;-70
2021/12/21 09:59:13;;;;;;;54.00;38.63;;;1.00;99.90;;;;;;4955813;28;20130;-70
2021/12/21 10:01:45;;;;;;;58.55;43.78;;;1.30;99.90;;;;;;4951605;28;20448;-72
2021/12/21 10:04:15;;;;;;;59.20;47.53;;;1.40;99.90;;;;;;4956456;28;20051;-71
2021/12/21 10:06:56;;;;;;;97.43;53.13;;;1.60;99.90;;;;;;4966190;28;20070;-70
2021/12/21 10:09:34;;;;;;;64.85;50.50;;;1.60;99.90;;;;;;4970644;28;20078;-66
2021/12/21 10:12:04;;;;;;;74.35;52.78;;;1.70;99.90;;;;;;4966953;28;20046;-68
2021/12/21 10:14:33;;;;;;;75.80;53.38;;;1.80;99.90;;;;;;4971457;28;20125;-68
2021/12/21 10:17:05;;;;;;;72.18;54.85;;;2.00;99.90;;;;;;4967207;28;20125;-68
2021/12/21 10:19:46;;;;;;;72.82;55.42;;;2.10;99.90;;;;;;4973336;28;20160;-69
2021/12/21 10:22:20;;;;;;;76.28;56.67;;;2.20;99.90;;;;;;4978418;28;20255;-69
2021/12/21 10:24:53;;;;;;;71.03;52.70;;;2.30;99.90;;;;;;4989135;28;20330;-66
2021/12/21 10:27:24;;;;;;;72.43;50.10;;;2.30;99.90;;;;;;4969787;28;20130;-64
2021/12/21 10:30:00;;;;;;;65.70;49.92;;;2.40;99.90;;;;;;4970697;28;20039;-70
2021/12/21 10:32:33;;;;;;;66.53;48.97;;;2.30;99.90;;;;;;4989168;28;20613;-70
2021/12/21 10:35:10;;;;;;;61.78;47.35;;;2.10;99.90;;;;;;4990480;28;20228;-69
2021/12/21 10:37:43;;;;;;;58.92;46.78;;;2.10;99.90;;;;;;4956620;28;20309;-71
2021/12/21 10:40:28;;;;;;;52.55;43.95;;;2.00;99.90;;;;;;4962852;28;20243;-70
2021/12/21 10:43:01;;;;;;;95.88;48.10;;;2.10;99.90;;;;;;4960512;28;20279;-73
2021/12/21 10:45:42;;;;;;;58.42;44.20;;;2.30;99.90;;;;;;4949651;28;20051;-74
2021/12/21 10:48:16;;;;;;;53.85;39.40;;;2.50;99.90;;;;;;4956150;28;20516;-74
2021/12/21 10:50:44;;;;;;;55.88;39.17;;;2.50;99.90;;;;;;4954283;28;20797;-73
2021/12/21 10:53:20;;;;;;;88.32;43.97;;;2.70;99.90;;;;;;4953678;28;20046;-72
2021/12/21 10:56:02;;;;;;;44.42;32.58;;;2.90;99.90;;;;;;4953000;28;20043;-74
2021/12/21 10:58:29;;;;;;;49.45;35.67;;;3.10;99.90;;;;;;4952201;28;20054;-72
2021/12/21 11:01:01;;;;;;;59.33;38.03;;;3.20;99.90;;;;;;4952957;28;20617;-72
2021/12/21 11:03:37;;;;;;;44.35;32.95;;;3.30;99.90;;;;;;4951931;28;20140;-71
2021/12/21 11:06:16;;;;;;;34.47;27.08;;;3.30;99.90;;;;;;4952209;28;20615;-72
2021/12/21 11:08:47;;;;;;;37.63;27.95;;;3.30;99.90;;;;;;4952655;28;20053;-71
2021/12/21 11:11:44;;;;;;;42.58;27.40;;;3.20;99.90;;;;;;4954072;28;20900;-71
2021/12/21 11:14:14;;;;;;;33.45;24.10;;;3.20;99.90;;;;;;4937025;28;20057;-71
2021/12/21 11:16:44;;;;;;;34.60;26.63;;;3.10;99.90;;;;;;4949164;28;20667;-71
2021/12/21 11:19:23;;;;;;;45.30;31.00;;;3.20;99.90;;;;;;4960067;28;20061;-71
2021/12/21 11:21:53;;;;;;;49.08;31.17;;;3.10;99.90;;;;;;4956203;28;20665;-71
2021/12/21 11:24:20;;;;;;;45.75;25.52;;;3.10;99.90;;;;;;4953930;28;20496;-72
2021/12/21 11:26:48;;;;;;;37.80;25.08;;;3.10;99.90;;;;;;4968824;28;20066;-71
2021/12/21 11:29:17;;;;;;;39.78;25.13;;;3.00;99.90;;;;;;4955321;28;20140;-71
2021/12/21 11:31:48;;;;;;;34.10;21.48;;;3.00;99.90;;;;;;4949725;28;20278;-71
2021/12/21 11:34:20;;;;;;;37.25;21.67;;;2.90;99.90;;;;;;4952651;28;20268;-71
2021/12/21 11:39:39;;;;;;;24.58;16.17;;;2.80;99.90;;;;;;4935638;29;20079;-71
2021/12/21 11:42:11;;;;;;;23.60;15.48;;;2.90;99.90;;;;;;4949073;28;20043;-71
2021/12/21 11:44:56;;;;;;;21.05;16.23;;;2.90;99.90;;;;;;4953099;28;20125;-71
2021/12/21 11:47:32;;;;;;;23.43;16.27;;;2.90;99.90;;;;;;4952673;28;20503;-71
2021/12/21 11:50:07;;;;;;;24.98;15.40;;;3.00;99.90;;;;;;4993491;23;20061;-78
2021/12/21 11:52:48;;;;;;;22.98;14.70;;;2.90;99.90;;;;;;4977302;28;20125;-78
2021/12/21 11:55:17;;;;;;;22.00;14.43;;;3.00;99.90;;;;;;4988229;28;20490;-78
2021/12/21 11:57:51;;;;;;;29.40;17.20;;;2.90;99.90;;;;;;4963943;28;20472;-78
2021/12/21 12:00:23;;;;;;;28.20;16.92;;;2.80;99.90;;;;;;4982235;28;20554;-78
2021/12/21 12:02:53;;;;;;;31.80;18.35;;;2.80;99.90;;;;;;4981732;28;20082;-77
2021/12/21 12:05:49;;;;;;;25.55;16.20;;;2.80;99.90;;;;;;4983750;28;20081;-78
2021/12/21 12:08:15;;;;;;;;;;;2.90;99.90;;;;;;4980888;28;20074;-77
2021/12/21 12:10:57;;;;;;;22.75;14.43;;;2.90;99.90;;;;;;4979753;28;20065;-77
2021/12/21 12:13:33;;;;;;;24.48;14.90;;;3.00;99.90;;;;;;4981510;28;20525;-77
2021/12/21 12:16:08;;;;;;;32.10;19.42;;;3.00;99.90;;;;;;4968656;28;20069;-76
2021/12/21 12:18:42;;;;;;;36.47;21.05;;;3.00;99.90;;;;;;4973118;28;20145;-77
2021/12/21 12:21:14;;;;;;;31.80;19.67;;;3.00;99.90;;;;;;4981377;28;20127;-77
2021/12/21 12:23:52;;;;;;;32.33;19.33;;;2.90;99.90;;;;;;4964945;28;20062;-77
2021/12/21 12:26:39;;;;;;;32.53;20.83;;;3.00;99.90;;;;;;4979902;28;20101;-77
2021/12/21 12:29:25;;;;;;;39.55;22.67;;;3.00;99.90;;;;;;4978746;28;20140;-76
2021/12/21 12:32:04;;;;;;;47.83;26.05;;;3.00;99.90;;;;;;4996634;28;20664;-78
2021/12/21 12:34:34;;;;;;;34.42;20.63;;;3.10;99.90;;;;;;4989526;28;20058;-77
2021/12/21 12:37:24;;;;;;;31.40;17.80;;;3.30;99.90;;;;;;4979419;28;20124;-77
2021/12/21 12:40:00;;;;;;;36.58;22.48;;;3.30;99.90;;;;;;4995364;28;20057;-77
2021/12/21 12:42:29;;;;;;;31.58;19.52;;;3.30;99.90;;;;;;4980467;28;20050;-78
2021/12/21 12:45:05;;;;;;;28.05;19.27;;;3.30;99.90;;;;;;4976473;28;20105;-77
2021/12/21 12:47:35;;;;;;;26.67;19.08;;;3.30;99.90;;;;;;4994075;28;20046;-76
2021/12/21 12:50:14;;;;;;;32.22;18.38;;;3.30;99.90;;;;;;4964526;28;20057;-77
2021/12/21 12:52:56;;;;;;;30.42;19.02;;;3.30;99.90;;;;;;4960899;28;20082;-76
2021/12/21 12:55:36;;;;;;;26.80;18.20;;;3.30;99.90;;;;;;4971302;28;20046;-77
2021/12/21 12:58:26;;;;;;;29.45;19.88;;;3.30;99.90;;;;;;4980175;28;20057;-77
2021/12/21 13:01:24;;;;;;;27.77;17.13;;;3.40;99.90;;;;;;4980067;28;20058;-77
2021/12/21 13:03:53;;;;;;;20.45;14.27;;;3.40;99.90;;;;;;4980705;28;20054;-77
2021/12/21 13:06:22;;;;;;;21.77;15.70;;;3.40;99.90;;;;;;4979534;28;20057;-77
2021/12/21 13:08:50;;;;;;;21.25;14.57;;;3.50;99.90;;;;;;4981234;28;20368;-77
2021/12/21 13:11:24;;;;;;;20.88;17.17;;;3.50;99.90;;;;;;4979445;28;20386;-76
2021/12/21 13:13:53;;;;;;;10.73;9.23;;;3.60;99.90;;;;;;4979674;28;20136;-77
2021/12/21 13:16:26;;;;;;;9.35;8.38;;;3.60;99.90;;;;;;4962330;28;20618;-76
2021/12/21 13:18:55;;;;;;;10.82;9.90;;;3.50;99.90;;;;;;4971540;28;20039;-76
2021/12/21 13:21:37;;;;;;;9.60;7.78;;;3.30;99.90;;;;;;4995368;28;20051;-76
2021/12/21 13:24:11;;;;;;;7.38;6.78;;;3.00;99.90;;;;;;4995407;28;20538;-76
2021/12/21 13:26:51;;;;;;;10.43;9.63;;;2.80;99.90;;;;;;4994607;28;20042;-75
2021/12/21 13:29:21;;;;;;;8.27;7.50;;;2.70;99.90;;;;;;4979284;28;20710;-75
2021/12/21 13:31:51;;;;;;;9.65;9.15;;;2.60;99.90;;;;;;4980462;28;20058;-76
2021/12/21 13:34:19;;;;;;;11.25;10.25;;;2.70;99.90;;;;;;4980164;28;20137;-76
2021/12/21 13:36:50;;;;;;;11.50;10.60;;;2.60;99.90;;;;;;4961753;28;20302;-76
2021/12/21 13:39:19;;;;;;;11.38;10.57;;;2.60;99.90;;;;;;4978536;28;20058;-76
2021/12/21 13:42:11;;;;;;;15.73;14.45;;;2.70;99.90;;;;;;4976468;28;20578;-76
2021/12/21 13:45:07;;;;;;;13.30;12.15;;;2.70;99.90;;;;;;4977505;28;20495;-77
2021/12/21 13:47:43;;;;;;;14.23;12.82;;;2.70;99.90;;;;;;4963558;28;20158;-75
2021/12/21 13:50:16;;;;;;;13.23;12.18;;;2.70;99.90;;;;;;4972509;28;20042;-75
2021/12/21 13:52:52;;;;;;;17.23;14.50;;;2.50;99.90;;;;;;4994921;28;20125;-76
2021/12/21 13:55:27;;;;;;;16.13;14.55;;;2.40;99.90;;;;;;4979367;28;20046;-76
2021/12/21 13:57:56;;;;;;;20.58;18.45;;;2.40;99.90;;;;;;4983792;28;20066;-75